עמוד ראשי
METAR-TAF:

METAR-TAF

שדות תעופה :

ריו גז'גוס, ארגנטינה

קו רוחב: 51-37S, קו אורך: 069-17W, גובה: 20מטר

תצפית מזג אוויר נוכחית

הדו"ח נערך לפני 1 שעות ו 0דקות, בשעה 20:00 UTC
רוח 16קשר מכיוון מערב
טמפרטורת 3 צלסיוס
לחות 75%
לחץ 989 hPa
ראות 10 קילומטר או יותר
מעט עננים בגובה 2100רגל

METAR: SAWG 142000Z 26016KT 9999 FEW021 03/M01 Q0989

זמן: 18:00 (21:00 UTC)

תחזית

הדו"ח נערך לפני 4 שעות ו 0דקות, בשעה 17:00 UTC
תחזית בתוקף מ 14 ב 18 UTC עד 15 ב 18 UTC
רוח 20קשר מכיוון מערב/צפון-מערב עם משבים עד 35קשר
ראות 10 קילומטר או יותר
מעט עננים בגובה 4000רגל
זמנית מ -
14 ב 18 UTC עד 14 ב 21 UTC
ראות: 8000מטר
ממטרי גשם
יעשה מ
15 ב 03 UTC עד 15 ב 05 UTC
רוח 12קשר מכיוון מערב
עננים פזורים בגובה 3000רגל
עננים בינוניים בגובה 6000רגל
זמנית מ -
15 ב 09 UTC עד 15 ב 12 UTC
ראות: 9000מטר
עננים בינוניים בגובה 2000רגל
ממטרי גשם, שלג,

TAF: SAWG 141700Z 1418/1518 30020G35KT 9999 FEW040 TX04/1418Z TNM01/1511Z TEMPO 1418/1421 8000 SHRA BECMG 1503/1505 28012KT SCT030 BKN060 TEMPO 1509/1512 9000 SHRASN BKN020

תצפיות ותחזיות מזג אוויר לגבי יותר מ- 4,000 שדות תעופה ברחבי העולם. דוחות METAR ו- TAF.

התחנות הזמינות מסומנות בנקודות צהובות ואדומות על גבי המפה.

העבר את העכבר לנקודה הצבעונית על מנת לראות את שם התחנה.

לאחר מכן, לחץ כדי לראות את תוכן ואת תחזיות מזג האוויר.

כדי לשנות את המפה: לחץ על הכפתורים הירוקים עם הפלוס השחור כדי להתקרב; על הכפתור הירוק עם המקף כדי להתרחק; או בחיצים הירוקים למפות סמוכות.


METAR-TAF: